Aviation Services » Terminal Aerodrome Forecasts Sunday, January 22, 2017
 Terminal Aerodrome Forecasts (TAF)

 

FTNV01 NVVV 211604
TAF NVSC 211600Z 2118/2218 VRB02KT 9999 SCT020
INTER 2118/2124 9000 -SHRA BKN018=

TAF NVSG 211600Z 2118/2218 VRB02KT 9999 BKN020
INTER 2118/2124 9000 -SHRA BKN018=

TAF NVSS 211600Z 2118/2218 VRB02KT 9999 FEW020
INTER 2118/2124 8000 SHRA BKN016=

TAF NVSL 211600Z 2118/2218 VRB02KT 9999 FEW020=

TAF NVVV 211600Z 2118/2218 VRB02KT 9999 FEW025=

TAF NVVW 211600Z 2118/2218 VRB03KT 9999 FEW025=

TAF NVVA 211600Z 2118/2218 VRB02KT 9999 FEW025=